createdAt,value
2019-02-15T00:00:02.825Z,15.41
2019-02-15T00:01:03.493Z,14.93
2019-02-15T00:02:03.030Z,14.62
2019-02-15T00:03:03.410Z,14.79
2019-02-15T00:04:03.036Z,16.09
2019-02-15T00:05:03.365Z,14.69
2019-02-15T00:06:03.182Z,16.18
2019-02-15T00:07:03.674Z,15.08
2019-02-15T00:08:02.937Z,15.85
2019-02-15T00:09:03.779Z,14.43
2019-02-15T00:10:03.385Z,15.92
2019-02-15T00:11:03.438Z,14.48
2019-02-15T00:12:03.410Z,15.68
2019-02-15T00:13:02.879Z,15.23
2019-02-15T00:14:03.393Z,16.38
2019-02-15T00:15:03.510Z,15.33
2019-02-15T00:16:02.827Z,16.78
2019-02-15T00:17:03.184Z,17.36
2019-02-15T00:18:03.017Z,15.84
2019-02-15T00:19:03.505Z,15.72
2019-02-15T00:20:03.029Z,15.5
2019-02-15T00:21:03.075Z,15.5
2019-02-15T00:22:02.829Z,16.21
2019-02-15T00:23:03.090Z,16.21
2019-02-15T00:24:03.181Z,15.24
2019-02-15T00:25:03.581Z,13.95
2019-02-15T00:26:03.123Z,13.95
2019-02-15T00:27:03.464Z,14.39
2019-02-15T00:28:03.069Z,14.39
2019-02-15T00:29:03.541Z,14.49
2019-02-15T00:30:03.358Z,16.35
2019-02-15T00:31:03.527Z,15.71
2019-02-15T00:32:03.090Z,14.48
2019-02-15T00:33:03.636Z,15.16
2019-02-15T00:34:02.902Z,16.63
2019-02-15T00:35:03.535Z,15.94
2019-02-15T00:36:02.801Z,16.7
2019-02-15T00:37:03.684Z,17.89
2019-02-15T00:38:03.112Z,17.67
2019-02-15T00:39:03.207Z,17.65
2019-02-15T00:40:03.717Z,17.42
2019-02-15T00:41:02.830Z,19.34
2019-02-15T00:42:03.497Z,19.04
2019-02-15T00:43:02.913Z,18.08
2019-02-15T00:44:03.438Z,18.4
2019-02-15T00:45:03.052Z,17.81
2019-02-15T00:46:03.321Z,17.46
2019-02-15T00:47:03.513Z,18.05
2019-02-15T00:48:02.950Z,17.65
2019-02-15T00:49:02.721Z,17.39
2019-02-15T00:50:02.984Z,16.41
2019-02-15T00:51:02.659Z,16.64
2019-02-15T00:52:02.642Z,17.76
2019-02-15T00:53:03.335Z,15.75
2019-02-15T00:54:03.054Z,15.71
2019-02-15T00:55:03.556Z,16.93
2019-02-15T00:56:02.948Z,15.18
2019-02-15T00:57:03.204Z,16.59
2019-02-15T00:58:03.498Z,16.97
2019-02-15T00:59:03.070Z,16.21
2019-02-15T01:00:03.748Z,16.71
2019-02-15T01:01:03.049Z,15.62
2019-02-15T01:02:02.884Z,17.44
2019-02-15T01:03:02.810Z,16.29
2019-02-15T01:04:02.667Z,16.06
2019-02-15T01:05:02.751Z,15.83
2019-02-15T01:06:03.664Z,15.96
2019-02-15T01:07:03.029Z,16.41
2019-02-15T01:08:03.327Z,16.26
2019-02-15T01:09:03.605Z,15.88
2019-02-15T01:10:03.182Z,17
2019-02-15T01:11:03.496Z,15.41
2019-02-15T01:12:02.963Z,16.27
2019-02-15T01:13:02.777Z,16.27
2019-02-15T01:14:03.091Z,15.93
2019-02-15T01:15:03.876Z,15.93
2019-02-15T01:16:03.031Z,16.11
2019-02-15T01:17:03.852Z,19.08
2019-02-15T01:18:03.023Z,19.08
2019-02-15T01:19:02.875Z,18.6
2019-02-15T01:20:03.094Z,17.66
2019-02-15T01:21:02.744Z,17.66
2019-02-15T01:22:03.169Z,18.52
2019-02-15T01:23:02.883Z,20.55
2019-02-15T01:24:03.065Z,20.04
2019-02-15T01:25:03.445Z,19.18
2019-02-15T01:26:03.569Z,18.28
2019-02-15T01:27:03.228Z,18.75
2019-02-15T01:28:02.887Z,18
2019-02-15T01:29:03.266Z,17.23
2019-02-15T01:30:03.482Z,17.06
2019-02-15T01:31:03.213Z,16.12
2019-02-15T01:32:03.614Z,17.46
2019-02-15T01:33:03.145Z,19.12
2019-02-15T01:34:03.644Z,18.39
2019-02-15T01:35:02.903Z,17.84
2019-02-15T01:36:03.254Z,15.75
2019-02-15T01:37:03.239Z,17.62
2019-02-15T01:38:03.414Z,18.11
2019-02-15T01:39:02.881Z,18.16
2019-02-15T01:40:03.357Z,17.88
2019-02-15T01:41:03.532Z,18.26
2019-02-15T01:42:03.048Z,17.75
2019-02-15T01:43:03.461Z,17.22
2019-02-15T01:44:02.834Z,20.39
2019-02-15T01:45:03.511Z,18.14
2019-02-15T01:46:03.176Z,18.25
2019-02-15T01:47:03.469Z,18.46
2019-02-15T01:48:02.844Z,19.19
2019-02-15T01:49:03.080Z,17.79
2019-02-15T01:50:03.382Z,18.13
2019-02-15T01:51:02.881Z,18.39
2019-02-15T01:52:02.845Z,18.37
2019-02-15T01:53:03.235Z,17.61
2019-02-15T01:54:02.897Z,18.49
2019-02-15T01:55:03.227Z,17.55
2019-02-15T01:56:02.580Z,18.54
2019-02-15T01:57:02.805Z,17.92
2019-02-15T01:58:02.683Z,17.41
2019-02-15T01:59:03.314Z,18.23
2019-02-15T02:00:03.201Z,18.23
2019-02-15T02:01:03.292Z,20.02
2019-02-15T02:02:02.968Z,19.56
2019-02-15T02:03:03.116Z,19.56
2019-02-15T02:04:02.817Z,19.13
2019-02-15T02:05:03.476Z,18.26
2019-02-15T02:06:03.429Z,18.26
2019-02-15T02:07:03.117Z,17.98
2019-02-15T02:08:03.453Z,19.14
2019-02-15T02:09:02.911Z,18.28
2019-02-15T02:10:03.299Z,20
2019-02-15T02:11:02.991Z,19.29
2019-02-15T02:12:03.257Z,17.66
2019-02-15T02:13:03.131Z,17.9
2019-02-15T02:14:03.151Z,18.44
2019-02-15T02:15:03.921Z,18.39
2019-02-15T02:16:03.208Z,17.34
2019-02-15T02:17:03.434Z,17.89
2019-02-15T02:18:03.118Z,19.11
2019-02-15T02:19:03.527Z,19.08
2019-02-15T02:20:02.999Z,19.9
2019-02-15T02:21:03.302Z,16.19
2019-02-15T02:22:02.526Z,17.5
2019-02-15T02:23:03.550Z,19.01
2019-02-15T02:24:03.792Z,17.87
2019-02-15T02:25:03.161Z,19.56
2019-02-15T02:26:03.954Z,17.71
2019-02-15T02:27:03.096Z,17.47
2019-02-15T02:28:03.380Z,17.98
2019-02-15T02:29:03.068Z,19.09
2019-02-15T02:30:03.439Z,17.31
2019-02-15T02:31:02.994Z,19.04
2019-02-15T02:32:03.983Z,22.18
2019-02-15T02:33:02.707Z,17.76
2019-02-15T02:34:03.247Z,19.63
2019-02-15T02:35:03.532Z,19.42
2019-02-15T02:36:03.042Z,18.42
2019-02-15T02:37:03.595Z,19.21
2019-02-15T02:38:03.165Z,19.15
2019-02-15T02:39:03.423Z,17.81
2019-02-15T02:40:03.291Z,18.39
2019-02-15T02:41:03.310Z,21.37
2019-02-15T02:42:03.106Z,20.12
2019-02-15T02:43:03.254Z,16.65
2019-02-15T02:44:02.794Z,18.15
2019-02-15T02:45:03.182Z,18.08
2019-02-15T02:46:02.773Z,17.66
2019-02-15T02:47:03.220Z,17.24
2019-02-15T02:48:02.755Z,18.42
2019-02-15T02:49:03.130Z,18.28
2019-02-15T02:50:03.826Z,19.97
2019-02-15T02:51:02.968Z,18.02
2019-02-15T02:52:03.676Z,18.02
2019-02-15T02:53:02.867Z,18.76
2019-02-15T02:54:03.736Z,18.28
2019-02-15T02:55:03.141Z,18.28
2019-02-15T02:56:03.296Z,17.58
2019-02-15T02:57:02.836Z,19.84
2019-02-15T02:58:03.004Z,19.84
2019-02-15T02:59:02.906Z,18.28
2019-02-15T03:00:03.144Z,17.32
2019-02-15T03:01:02.930Z,18.1
2019-02-15T03:02:03.214Z,19.18
2019-02-15T03:03:02.815Z,19.24
2019-02-15T03:04:03.291Z,20.09
2019-02-15T03:05:03.685Z,20.01
2019-02-15T03:06:03.160Z,17.84
2019-02-15T03:07:03.659Z,17.74
2019-02-15T03:08:03.300Z,18.42
2019-02-15T03:09:03.665Z,17.66
2019-02-15T03:10:03.262Z,19.97
2019-02-15T03:11:03.413Z,19.31
2019-02-15T03:12:03.051Z,19.11
2019-02-15T03:13:03.203Z,21.02
2019-02-15T03:14:11.970Z,18.32
2019-02-15T03:15:02.671Z,20.33
2019-02-15T03:16:02.879Z,19.17
2019-02-15T03:17:03.171Z,18.99
2019-02-15T03:18:03.306Z,19.46
2019-02-15T03:19:03.148Z,19.54
2019-02-15T03:20:02.962Z,19.07
2019-02-15T03:21:03.213Z,18.88
2019-02-15T03:22:02.991Z,19.64
2019-02-15T03:23:03.247Z,18.46
2019-02-15T03:24:02.467Z,20.88
2019-02-15T03:25:03.141Z,18.41
2019-02-15T03:26:03.394Z,20.22
2019-02-15T03:27:03.584Z,20.11
2019-02-15T03:28:03.691Z,18.43
2019-02-15T03:29:02.731Z,18.98
2019-02-15T03:30:02.940Z,18.86
2019-02-15T03:31:03.460Z,20.15
2019-02-15T03:32:03.068Z,19.49
2019-02-15T03:33:03.662Z,19.55
2019-02-15T03:34:02.916Z,19.24
2019-02-15T03:35:03.276Z,21.24
2019-02-15T03:36:03.629Z,18.09
2019-02-15T03:37:03.220Z,17.61
2019-02-15T03:38:02.959Z,20.26
2019-02-15T03:39:03.236Z,19.03
2019-02-15T03:40:02.599Z,19.03
2019-02-15T03:41:03.180Z,18.56
2019-02-15T03:42:03.690Z,18.35
2019-02-15T03:43:02.870Z,18.35
2019-02-15T03:44:03.938Z,18.42
2019-02-15T03:45:02.880Z,18.87
2019-02-15T03:46:03.417Z,18.87
2019-02-15T03:47:03.189Z,19.48
2019-02-15T03:48:03.371Z,18.74
2019-02-15T03:49:03.475Z,18.72
2019-02-15T03:50:05.201Z,18.2
2019-02-15T03:51:02.951Z,18.21
2019-02-15T03:52:03.341Z,20.05
2019-02-15T03:53:03.062Z,19.37
2019-02-15T03:54:03.290Z,18.74
2019-02-15T03:55:02.861Z,17.27
2019-02-15T03:56:03.039Z,18.64
2019-02-15T03:57:03.884Z,18.78
2019-02-15T03:58:03.256Z,20.19
2019-02-15T03:59:03.769Z,17.72
2019-02-15T04:00:03.498Z,18.25
2019-02-15T04:01:03.523Z,21.42
2019-02-15T04:02:03.129Z,21.3
2019-02-15T04:03:03.633Z,20.5
2019-02-15T04:04:03.234Z,19.88
2019-02-15T04:05:03.516Z,21.14
2019-02-15T04:06:03.249Z,21.59
2019-02-15T04:07:03.450Z,20.79
2019-02-15T04:08:02.918Z,26.2
2019-02-15T04:09:03.304Z,20.52
2019-02-15T04:10:02.942Z,21.57
2019-02-15T04:11:03.335Z,19.42
2019-02-15T04:12:03.447Z,20.69
2019-02-15T04:13:03.367Z,20.01
2019-02-15T04:14:02.613Z,19.18
2019-02-15T04:15:03.317Z,18.65
2019-02-15T04:16:03.491Z,19.78
2019-02-15T04:17:03.261Z,19.98
2019-02-15T04:18:03.713Z,19.75
2019-02-15T04:19:03.166Z,20.35
2019-02-15T04:20:03.445Z,19.57
2019-02-15T04:21:03.064Z,18.42
2019-02-15T04:22:03.281Z,20.45
2019-02-15T04:23:02.990Z,18.99
2019-02-15T04:24:03.502Z,18.32
2019-02-15T04:25:03.049Z,18.35
2019-02-15T04:26:03.350Z,18.42
2019-02-15T04:27:02.732Z,20.99
2019-02-15T04:28:03.223Z,19.17
2019-02-15T04:29:02.755Z,20.43
2019-02-15T04:30:03.405Z,21.43
2019-02-15T04:31:02.712Z,22.11
2019-02-15T04:32:03.418Z,22.11
2019-02-15T04:33:03.605Z,20.91
2019-02-15T04:34:03.044Z,18.99
2019-02-15T04:35:02.603Z,18.99
2019-02-15T04:36:02.948Z,21.26
2019-02-15T04:37:03.218Z,21.45
2019-02-15T04:38:03.705Z,21.45
2019-02-15T04:39:03.585Z,21.29
2019-02-15T04:40:03.339Z,20.49
2019-02-15T04:41:02.830Z,21.03
2019-02-15T04:42:03.282Z,19.22
2019-02-15T04:43:02.793Z,21.79
2019-02-15T04:44:03.388Z,21.19
2019-02-15T04:45:02.956Z,19.88
2019-02-15T04:46:03.029Z,22.33
2019-02-15T04:47:03.106Z,23.12
2019-02-15T04:48:03.617Z,24.12
2019-02-15T04:49:02.975Z,23.08
2019-02-15T04:50:02.666Z,24.66
2019-02-15T04:51:02.990Z,21.45
2019-02-15T04:52:03.391Z,21.18
2019-02-15T04:53:03.349Z,20.01
2019-02-15T04:54:03.506Z,19.81
2019-02-15T04:55:02.999Z,19.79
2019-02-15T04:56:03.439Z,20.36
2019-02-15T04:57:03.575Z,21.91
2019-02-15T04:58:02.913Z,20.93
2019-02-15T04:59:03.377Z,20.7
2019-02-15T05:00:03.106Z,21.32
2019-02-15T05:01:03.776Z,21.9
2019-02-15T05:02:02.955Z,19.98
2019-02-15T05:03:02.631Z,23.58
2019-02-15T05:04:03.057Z,19.98
2019-02-15T05:05:03.575Z,21.98
2019-02-15T05:06:03.148Z,21.19
2019-02-15T05:07:03.626Z,22.65
2019-02-15T05:08:02.985Z,22.37
2019-02-15T05:09:03.547Z,20.96
2019-02-15T05:10:03.174Z,21.31
2019-02-15T05:11:03.320Z,20.57
2019-02-15T05:12:02.763Z,22.29
2019-02-15T05:13:03.475Z,21.47
2019-02-15T05:14:02.658Z,21.55
2019-02-15T05:15:03.517Z,20.94
2019-02-15T05:16:03.947Z,21.38
2019-02-15T05:17:02.936Z,19.48
2019-02-15T05:18:03.402Z,22.56
2019-02-15T05:19:03.287Z,20.12
2019-02-15T05:20:03.681Z,20.12
2019-02-15T05:21:03.173Z,20.68
2019-02-15T05:22:03.576Z,21.64
2019-02-15T05:23:02.792Z,21.64
2019-02-15T05:24:03.004Z,18.82
2019-02-15T05:25:03.063Z,18.82
2019-02-15T05:26:03.231Z,19.71
2019-02-15T05:27:02.733Z,20.58
2019-02-15T05:28:02.851Z,19.7
2019-02-15T05:29:03.470Z,20.31
2019-02-15T05:30:03.934Z,20.24
2019-02-15T05:31:02.955Z,20.47
2019-02-15T05:32:03.631Z,18.43
2019-02-15T05:33:02.945Z,20.93
2019-02-15T05:34:03.173Z,19.72
2019-02-15T05:35:02.660Z,19.14
2019-02-15T05:36:03.050Z,19.04
2019-02-15T05:37:03.628Z,21.04
2019-02-15T05:38:03.309Z,19.45
2019-02-15T05:39:03.364Z,19.51
2019-02-15T05:40:03.335Z,21.35
2019-02-15T05:41:03.665Z,19.38
2019-02-15T05:42:02.991Z,20.11
2019-02-15T05:43:03.714Z,20.36
2019-02-15T05:44:03.605Z,19.74
2019-02-15T05:45:04.902Z,19.21
2019-02-15T05:46:03.216Z,19.72
2019-02-15T05:47:03.619Z,19.81
2019-02-15T05:48:03.181Z,20.17
2019-02-15T05:49:03.428Z,21.91
2019-02-15T05:50:03.282Z,21.61
2019-02-15T05:51:03.507Z,21.32
2019-02-15T05:52:02.986Z,20.86
2019-02-15T05:53:03.452Z,21.46
2019-02-15T05:54:02.954Z,20.68
2019-02-15T05:55:03.219Z,20.36
2019-02-15T05:56:03.540Z,19.76
2019-02-15T05:57:02.889Z,18.69
2019-02-15T05:58:03.788Z,18.51
2019-02-15T05:59:03.305Z,18.02
2019-02-15T06:00:03.791Z,23.25
2019-02-15T06:01:02.943Z,21.72
2019-02-15T06:02:03.317Z,21.36
2019-02-15T06:03:02.931Z,20.72
2019-02-15T06:04:03.536Z,23.25
2019-02-15T06:05:02.955Z,24.13
2019-02-15T06:06:03.261Z,23.35
2019-02-15T06:07:03.489Z,23.14
2019-02-15T06:08:03.195Z,23.14
2019-02-15T06:09:03.124Z,22.21
2019-02-15T06:10:02.957Z,22.97
2019-02-15T06:11:08.335Z,22.97
2019-02-15T06:12:03.029Z,23.84
2019-02-15T06:13:03.361Z,23.84
2019-02-15T06:14:03.604Z,24.99
2019-02-15T06:15:15.566Z,24.01
2019-02-15T06:16:03.398Z,23.1
2019-02-15T06:17:03.738Z,23.36
2019-02-15T06:18:03.493Z,24.02
2019-02-15T06:19:02.818Z,23.84
2019-02-15T06:20:03.174Z,21.86
2019-02-15T06:21:03.603Z,23.55
2019-02-15T06:22:02.698Z,23.04
2019-02-15T06:23:03.490Z,21.47
2019-02-15T06:24:02.948Z,23.78
2019-02-15T06:25:03.915Z,20.2
2019-02-15T06:26:03.120Z,23.75
2019-02-15T06:27:03.397Z,22.29
2019-02-15T06:28:02.850Z,22.65
2019-02-15T06:29:03.476Z,21.88
2019-02-15T06:30:03.393Z,23.45
2019-02-15T06:31:03.406Z,22.95
2019-02-15T06:32:02.911Z,22.52
2019-02-15T06:33:03.289Z,21.88
2019-02-15T06:34:03.287Z,24.32
2019-02-15T06:35:03.227Z,20.54
2019-02-15T06:36:03.685Z,21.99
2019-02-15T06:37:02.999Z,22.1
2019-02-15T06:38:03.499Z,22.08
2019-02-15T06:39:03.025Z,22.55
2019-02-15T06:40:03.455Z,19.85
2019-02-15T06:41:02.762Z,21.41
2019-02-15T06:42:03.221Z,22.29
2019-02-15T06:43:03.032Z,21.16
2019-02-15T06:44:03.356Z,20.94
2019-02-15T06:45:02.908Z,22.29
2019-02-15T06:46:03.138Z,21.88
2019-02-15T06:47:02.937Z,21.01
2019-02-15T06:48:03.471Z,22.29
2019-02-15T06:49:02.893Z,22.05
2019-02-15T06:50:03.143Z,21.34
2019-02-15T06:51:03.083Z,21.28
2019-02-15T06:52:02.909Z,20.09
2019-02-15T06:53:03.362Z,21.94
2019-02-15T06:54:03.710Z,22.56
2019-02-15T06:55:03.175Z,27.61
2019-02-15T06:56:02.855Z,25.26
2019-02-15T06:57:03.196Z,23.79
2019-02-15T06:58:03.445Z,24.85
2019-02-15T06:59:02.928Z,25.16
2019-02-15T07:00:03.751Z,24.99
2019-02-15T07:01:02.888Z,24.99
2019-02-15T07:02:03.793Z,26.14
2019-02-15T07:03:02.826Z,27.53
2019-02-15T07:04:03.492Z,27.53
2019-02-15T07:05:03.355Z,28.44
2019-02-15T07:06:03.660Z,31.84
2019-02-15T07:07:03.738Z,31.94
2019-02-15T07:08:03.501Z,34.74
2019-02-15T07:09:03.640Z,29.47
2019-02-15T07:10:02.976Z,31.83
2019-02-15T07:11:03.692Z,29.52
2019-02-15T07:12:02.964Z,28.88
2019-02-15T07:13:03.822Z,28.28
2019-02-15T07:14:03.070Z,26.78
2019-02-15T07:15:03.867Z,27.61
2019-02-15T07:16:03.100Z,29.41
2019-02-15T07:17:03.312Z,29.04
2019-02-15T07:18:02.933Z,28.24
2019-02-15T07:19:03.428Z,28.55
2019-02-15T07:20:02.770Z,28.09
2019-02-15T07:21:03.357Z,28.5
2019-02-15T07:22:03.475Z,26.21
2019-02-15T07:23:02.854Z,26.39
2019-02-15T07:24:03.212Z,26.94
2019-02-15T07:25:03.369Z,28.12
2019-02-15T07:26:03.534Z,28
2019-02-15T07:27:03.242Z,26.06
2019-02-15T07:28:02.604Z,25.61
2019-02-15T07:29:03.173Z,26.09
2019-02-15T07:30:03.759Z,26.51
2019-02-15T07:31:02.879Z,27.27
2019-02-15T07:32:03.367Z,24.05
2019-02-15T07:33:02.824Z,24.41
2019-02-15T07:34:03.267Z,27.26
2019-02-15T07:35:03.018Z,24.18
2019-02-15T07:36:03.139Z,25.65
2019-02-15T07:37:02.822Z,26.74
2019-02-15T07:38:03.259Z,25.09
2019-02-15T07:39:02.744Z,24.44
2019-02-15T07:40:03.187Z,27.52
2019-02-15T07:41:03.810Z,28.03
2019-02-15T07:42:02.970Z,27.32
2019-02-15T07:43:03.800Z,30.55
2019-02-15T07:44:03.207Z,29.49
2019-02-15T07:45:03.735Z,30.65
2019-02-15T07:46:03.479Z,27.79
2019-02-15T07:47:03.578Z,29.91
2019-02-15T07:48:02.937Z,29.91
2019-02-15T07:49:03.104Z,29.44
2019-02-15T07:50:03.785Z,29.44
2019-02-15T07:51:09.975Z,32.96
2019-02-15T07:52:02.740Z,29.5
2019-02-15T07:53:03.138Z,31.43
2019-02-15T07:54:03.577Z,29.63
2019-02-15T07:55:03.079Z,27.58
2019-02-15T07:56:02.813Z,32.41
2019-02-15T07:57:03.381Z,28.86
2019-02-15T07:58:03.747Z,31.04
2019-02-15T07:59:03.291Z,29.89
2019-02-15T08:00:03.639Z,33.67
2019-02-15T08:01:03.177Z,33.1
2019-02-15T08:02:03.649Z,30.02
2019-02-15T08:03:03.329Z,34.89
2019-02-15T08:04:03.816Z,29.81
2019-02-15T08:05:03.250Z,32.74
2019-02-15T08:06:03.268Z,27.81
2019-02-15T08:07:02.543Z,32.92
2019-02-15T08:08:03.186Z,29.31
2019-02-15T08:09:02.883Z,31.29
2019-02-15T08:10:03.303Z,29.07
2019-02-15T08:11:03.072Z,28.5
2019-02-15T08:12:03.109Z,29.21
2019-02-15T08:13:03.461Z,29.37
2019-02-15T08:14:03.163Z,29.62
2019-02-15T08:15:03.587Z,30.22
2019-02-15T08:16:03.096Z,28.79
2019-02-15T08:17:03.649Z,30.93
2019-02-15T08:18:02.742Z,27.32
2019-02-15T08:19:03.297Z,32.02
2019-02-15T08:20:03.838Z,28.44
2019-02-15T08:21:03.432Z,30.06
2019-02-15T08:22:03.572Z,32.24
2019-02-15T08:23:03.376Z,29.92
2019-02-15T08:24:03.620Z,28.69
2019-02-15T08:25:03.132Z,28.19
2019-02-15T08:26:03.613Z,28.04
2019-02-15T08:27:03.170Z,27.18
2019-02-15T08:28:03.494Z,26.39
2019-02-15T08:29:03.123Z,29.7
2019-02-15T08:30:03.843Z,27.15
2019-02-15T08:31:02.786Z,28.72
2019-02-15T08:32:03.282Z,26.67
2019-02-15T08:33:02.604Z,25.86
2019-02-15T08:34:03.004Z,27.08
2019-02-15T08:35:03.626Z,28.94
2019-02-15T08:36:03.099Z,28.94
2019-02-15T08:37:03.654Z,26.76
2019-02-15T08:38:03.051Z,26.76
2019-02-15T08:39:03.617Z,25.18
2019-02-15T08:40:02.957Z,26.96
2019-02-15T08:41:03.567Z,26.96
2019-02-15T08:42:04.761Z,25.7
2019-02-15T08:43:03.452Z,26.66
2019-02-15T08:44:02.767Z,24.88
2019-02-15T08:45:03.333Z,27.96
2019-02-15T08:46:03.632Z,26.77
2019-02-15T08:47:03.096Z,25.86
2019-02-15T08:48:03.373Z,26.03
2019-02-15T08:49:03.101Z,25.42
2019-02-15T08:50:03.652Z,27.25
2019-02-15T08:51:02.874Z,25.24
2019-02-15T08:52:03.252Z,26.74
2019-02-15T08:53:03.026Z,27.54
2019-02-15T08:54:03.335Z,26.88
2019-02-15T08:55:02.789Z,26.42
2019-02-15T08:56:03.327Z,27.1
2019-02-15T08:57:02.767Z,27.48
2019-02-15T08:58:03.115Z,27.66
2019-02-15T08:59:03.730Z,25.76
2019-02-15T09:00:03.308Z,24.4
2019-02-15T09:01:02.790Z,26.38
2019-02-15T09:02:03.130Z,27.64
2019-02-15T09:03:03.313Z,28.1
2019-02-15T09:04:03.508Z,27.44
2019-02-15T09:05:03.727Z,27.84
2019-02-15T09:06:02.806Z,29.05
2019-02-15T09:07:03.374Z,26.39
2019-02-15T09:08:03.010Z,27.64
2019-02-15T09:09:02.968Z,27.02
2019-02-15T09:10:03.641Z,27.78
2019-02-15T09:11:03.103Z,27.21
2019-02-15T09:12:02.860Z,27.88
2019-02-15T09:13:03.331Z,28.31
2019-02-15T09:14:02.834Z,30.71
2019-02-15T09:15:03.327Z,25.79
2019-02-15T09:16:10.711Z,28.98
2019-02-15T09:17:02.890Z,27.31
2019-02-15T09:18:03.297Z,25.45
2019-02-15T09:19:02.813Z,26.68
2019-02-15T09:20:03.314Z,25.5
2019-02-15T09:21:02.760Z,24.61
2019-02-15T09:22:02.923Z,25.74
2019-02-15T09:23:03.638Z,27.62
2019-02-15T09:24:03.265Z,26.19
2019-02-15T09:25:03.108Z,26.35
2019-02-15T09:26:03.426Z,27.6
2019-02-15T09:27:03.012Z,25.31
2019-02-15T09:28:03.687Z,25.47
2019-02-15T09:29:03.091Z,25.12
2019-02-15T09:30:02.907Z,27.04
2019-02-15T09:31:02.943Z,24.36
2019-02-15T09:32:02.748Z,24.36
2019-02-15T09:33:03.171Z,24.82
2019-02-15T09:34:03.297Z,24.74
2019-02-15T09:35:03.222Z,24.74
2019-02-15T09:36:02.910Z,26.14
2019-02-15T09:37:03.189Z,26.73
2019-02-15T09:38:03.614Z,26
2019-02-15T09:39:03.119Z,25.74
2019-02-15T09:40:03.530Z,27.01
2019-02-15T09:41:02.962Z,25.84
2019-02-15T09:42:03.000Z,24.98
2019-02-15T09:43:03.545Z,26.8
2019-02-15T09:44:03.388Z,26.24
2019-02-15T09:45:03.346Z,24.47
2019-02-15T09:46:02.823Z,27.82
2019-02-15T09:47:03.302Z,25.48
2019-02-15T09:48:02.829Z,25.22
2019-02-15T09:49:03.608Z,26.83
2019-02-15T09:50:03.680Z,24.41
2019-02-15T09:51:02.916Z,26.62
2019-02-15T09:52:03.738Z,26.37
2019-02-15T09:53:03.122Z,26.14
2019-02-15T09:54:02.730Z,26.72
2019-02-15T09:55:03.270Z,26.21
2019-02-15T09:56:03.095Z,24.55
2019-02-15T09:57:03.593Z,24.75
2019-02-15T09:58:03.389Z,25.21
2019-02-15T09:59:03.444Z,25.07
2019-02-15T10:00:02.923Z,25.88
2019-02-15T10:01:03.179Z,24.71
2019-02-15T10:02:02.780Z,24.58
2019-02-15T10:03:03.540Z,25.31
2019-02-15T10:04:02.850Z,23.52
2019-02-15T10:05:03.936Z,24.39
2019-02-15T10:06:03.153Z,26.71
2019-02-15T10:07:03.693Z,25.08
2019-02-15T10:08:02.992Z,24.71
2019-02-15T10:09:03.145Z,25.02
2019-02-15T10:10:02.855Z,25.02
2019-02-15T10:11:03.387Z,23.75
2019-02-15T10:12:02.821Z,24.19
2019-02-15T10:13:03.390Z,24.65
2019-02-15T10:14:02.995Z,23.69
2019-02-15T10:15:03.604Z,25.03
2019-02-15T10:16:02.912Z,25.47
2019-02-15T10:17:03.588Z,23.52
2019-02-15T10:18:03.343Z,23.52
2019-02-15T10:19:03.412Z,23.34
2019-02-15T10:20:02.965Z,23.34
2019-02-15T10:21:03.438Z,23.4
2019-02-15T10:22:02.981Z,23
2019-02-15T10:23:03.253Z,23
2019-02-15T10:24:03.006Z,24.52
2019-02-15T10:25:03.443Z,22.45
2019-02-15T10:26:03.572Z,22.78
2019-02-15T10:27:03.168Z,21.65
2019-02-15T10:28:03.698Z,21.45
2019-02-15T10:29:03.218Z,21.88
2019-02-15T10:30:03.651Z,23.48
2019-02-15T10:31:03.005Z,24.22
2019-02-15T10:32:03.547Z,22.38
2019-02-15T10:33:02.948Z,23.63
2019-02-15T10:34:03.490Z,22.46
2019-02-15T10:35:03.451Z,23.2
2019-02-15T10:36:02.822Z,21.4
2019-02-15T10:37:03.087Z,21.54
2019-02-15T10:38:03.322Z,22.41
2019-02-15T10:39:02.833Z,23.22
2019-02-15T10:40:03.228Z,22.15
2019-02-15T10:41:02.834Z,22.03
2019-02-15T10:42:03.481Z,22.26
2019-02-15T10:43:02.445Z,21.46
2019-02-15T10:44:03.269Z,22.66
2019-02-15T10:45:03.719Z,22.05
2019-02-15T10:46:02.809Z,21.54
2019-02-15T10:47:03.129Z,22.12
2019-02-15T10:48:02.935Z,20.77
2019-02-15T10:49:03.029Z,20.79
2019-02-15T10:50:05.308Z,22.18
2019-02-15T10:51:03.130Z,21.96
2019-02-15T10:52:03.701Z,22.76
2019-02-15T10:53:03.611Z,21.36
2019-02-15T10:54:03.553Z,20.37
2019-02-15T10:55:03.055Z,22.09
2019-02-15T10:56:03.367Z,21.37
2019-02-15T10:57:03.591Z,19.73
2019-02-15T10:58:02.761Z,20.56
2019-02-15T10:59:03.318Z,20.22
2019-02-15T11:00:03.526Z,20.14
2019-02-15T11:01:03.352Z,18.78
2019-02-15T11:02:02.797Z,19.35
2019-02-15T11:03:03.260Z,18.64
2019-02-15T11:04:03.431Z,19.88
2019-02-15T11:05:02.862Z,18.84
2019-02-15T11:06:03.363Z,20.23
2019-02-15T11:07:02.545Z,19.19
2019-02-15T11:08:02.968Z,19.39
2019-02-15T11:09:03.091Z,19.39
2019-02-15T11:10:03.375Z,18.36
2019-02-15T11:11:03.648Z,19.53
2019-02-15T11:12:03.567Z,19.53
2019-02-15T11:13:02.941Z,19
2019-02-15T11:14:03.287Z,21.04
2019-02-15T11:15:02.812Z,19.85
2019-02-15T11:16:03.186Z,19.31
2019-02-15T11:17:03.486Z,19.1
2019-02-15T11:18:02.798Z,18.61
2019-02-15T11:19:03.334Z,18.96
2019-02-15T11:20:03.175Z,19.24
2019-02-15T11:21:03.224Z,17.99
2019-02-15T11:22:03.488Z,19.86
2019-02-15T11:23:02.797Z,19.39
2019-02-15T11:24:03.666Z,19.3
2019-02-15T11:25:02.962Z,19.03
2019-02-15T11:26:04.772Z,19.3
2019-02-15T11:27:03.593Z,21.13
2019-02-15T11:28:03.406Z,18.85
2019-02-15T11:29:03.635Z,19.18
2019-02-15T11:30:03.178Z,18.61
2019-02-15T11:31:03.470Z,19.84
2019-02-15T11:32:03.487Z,18.62
2019-02-15T11:33:03.780Z,19.66
2019-02-15T11:34:02.978Z,19.65
2019-02-15T11:35:02.823Z,20.59
2019-02-15T11:36:03.181Z,20.18
2019-02-15T11:37:03.741Z,18.25
2019-02-15T11:38:03.325Z,18.27
2019-02-15T11:39:02.897Z,18.98
2019-02-15T11:40:03.421Z,19.64
2019-02-15T11:41:11.507Z,20.07
2019-02-15T11:42:03.130Z,18.52
2019-02-15T11:43:03.544Z,17.91
2019-02-15T11:44:03.383Z,18.64
2019-02-15T11:45:03.614Z,17.07
2019-02-15T11:46:03.633Z,17.76
2019-02-15T11:47:03.658Z,17.04
2019-02-15T11:48:03.726Z,18.34
2019-02-15T11:49:03.337Z,18.31
2019-02-15T11:50:03.607Z,18.44
2019-02-15T11:51:03.269Z,17.71
2019-02-15T11:52:03.623Z,18.34
2019-02-15T11:53:02.736Z,17.35
2019-02-15T11:54:03.574Z,19
2019-02-15T11:55:03.025Z,16.44
2019-02-15T11:56:03.493Z,17.39
2019-02-15T11:57:02.630Z,17.39
2019-02-15T11:58:03.615Z,16.56
2019-02-15T11:59:03.013Z,18.28
2019-02-15T12:00:03.349Z,18.28
2019-02-15T12:01:03.037Z,17.03
2019-02-15T12:02:06.687Z,17.03
2019-02-15T12:03:03.859Z,16.63
2019-02-15T12:04:02.556Z,17.16
2019-02-15T12:05:03.142Z,17.31
2019-02-15T12:06:03.982Z,17.09
2019-02-15T12:07:03.666Z,16.99
2019-02-15T12:08:02.985Z,17.66
2019-02-15T12:09:03.360Z,16.57
2019-02-15T12:10:03.529Z,17.52
2019-02-15T12:11:03.206Z,18.27
2019-02-15T12:12:11.103Z,16.61
2019-02-15T12:13:01.924Z,17.85
2019-02-15T12:14:03.515Z,15.94
2019-02-15T12:15:03.257Z,16.19
2019-02-15T12:16:03.662Z,15.82
2019-02-15T12:17:06.026Z,16.49
2019-02-15T12:18:03.826Z,16.08
2019-02-15T12:19:02.794Z,17.96
2019-02-15T12:20:03.441Z,17.53
2019-02-15T12:21:02.988Z,17.47
2019-02-15T12:22:03.632Z,16.81
2019-02-15T12:23:02.757Z,16.79
2019-02-15T12:24:03.928Z,16.16
2019-02-15T12:25:03.619Z,16.66
2019-02-15T12:26:03.107Z,17.59
2019-02-15T12:27:03.189Z,17.44
2019-02-15T12:28:03.695Z,17.92
2019-02-15T12:29:03.105Z,17.87
2019-02-15T12:30:03.638Z,17.53
2019-02-15T12:31:03.480Z,18.15
2019-02-15T12:32:03.778Z,17.19
2019-02-15T12:33:03.163Z,17.05
2019-02-15T12:34:03.453Z,14.72
2019-02-15T12:35:03.203Z,18.42
2019-02-15T12:36:03.383Z,17
2019-02-15T12:37:03.236Z,16.99
2019-02-15T12:38:03.350Z,16.86
2019-02-15T12:39:02.965Z,18.09
2019-02-15T12:40:03.018Z,17.46
2019-02-15T12:41:03.283Z,16.89
2019-02-15T12:42:03.122Z,18.01
2019-02-15T12:43:03.619Z,17.41
2019-02-15T12:44:03.043Z,17.2
2019-02-15T12:45:03.627Z,17.64
2019-02-15T12:46:03.676Z,17.64
2019-02-15T12:47:03.425Z,16.82
2019-02-15T12:48:02.801Z,16.15
2019-02-15T12:49:03.553Z,16.15
2019-02-15T12:50:03.819Z,16.16
2019-02-15T12:51:03.057Z,16.04
2019-02-15T12:52:03.532Z,16.04
2019-02-15T12:53:02.999Z,16.9
2019-02-15T12:54:03.149Z,17.09